Погода Фонтанана неделю

Калифорния, США

01 - 07 сентября
  • 01сентября
    Сегодня
    +17°
    +31°
    Ясно и безоблачно
    ВремяПогодаТемператураВлажностьДавлениеВетер, м/сВероятность осадков
    02:00Ясно и безоблачно+20°C68 %729 мм2.0 м/с2 %
    05:00Ясно и безоблачно+17°C74 %728 мм0.7 м/с2 %
    08:00Ясно и безоблачно+18°C71 %729 мм1.1 м/с2 %
    11:00Ясно и безоблачно+24°C42 %729 мм1.5 м/с2 %
    14:00Ясно и безоблачно+30°C23 %729 мм5.6 м/с2 %
    17:00Ясно и безоблачно+29°C27 %727 мм6.5 м/с2 %
    20:00Ясно и безоблачно+23°C40 %727 мм5.3 м/с2 %
    23:00Ясно и безоблачно+20°C57 %729 мм3.5 м/с2 %
  • 02сентября
    Среда
    +17°
    +31°
    Ясно и безоблачно
    ВремяПогодаТемператураВлажностьДавлениеВетер, м/сВероятность осадков
    02:00Ясно и безоблачно+18°C67 %729 мм1.3 м/с2 %
    05:00Ясно и безоблачно+18°C66 %729 мм0.7 м/с2 %
    08:00Ясно и безоблачно+19°C62 %729 мм0.8 м/с2 %
    11:00Ясно и безоблачно+25°C41 %730 мм1.2 м/с2 %
    14:00Ясно и безоблачно+30°C25 %729 мм4.5 м/с2 %
    17:00Ясно и безоблачно+30°C25 %728 мм6.2 м/с2 %
    20:00Ясно и безоблачно+23°C41 %728 мм5.5 м/с2 %
    23:00Ясно и безоблачно+21°C56 %729 мм2.6 м/с2 %
  • 03сентября
    Четверг
    +17°
    +30°
    Ясно и безоблачно
    ВремяПогодаТемператураВлажностьДавлениеВетер, м/сВероятность осадков
    02:00Ясно и безоблачно+19°C64 %728 мм1.2 м/с2 %
    05:00Ясно и безоблачно+18°C66 %728 мм0.5 м/с2 %
    08:00Ясно и безоблачно+20°C61 %728 мм0.9 м/с2 %
    11:00Ясно и безоблачно+24°C41 %728 мм1.0 м/с2 %
    14:00Ясно и безоблачно+30°C29 %727 мм4.1 м/с2 %
    17:00Ясно и безоблачно+29°C36 %726 мм6.3 м/с2 %
    20:00Ясно и безоблачно+23°C62 %726 мм5.5 м/с2 %
    23:00Ясно и безоблачно+20°C72 %727 мм2.7 м/с2 %
  • 04сентября
    Пятница
    +18°
    +31°
    Ясно и безоблачно
    ВремяПогодаТемператураВлажностьДавлениеВетер, м/сВероятность осадков
    02:00Ясно и безоблачно+19°C76 %727 мм1.2 м/с2 %
    05:00Ясно и безоблачно+18°C80 %727 мм0.5 м/с2 %
    08:00Ясно и безоблачно+19°C76 %727 мм0.8 м/с2 %
    11:00Ясно и безоблачно+25°C44 %728 мм0.6 м/с2 %
    14:00Ясно и безоблачно+30°C27 %727 мм4.1 м/с2 %
    17:00Ясно и безоблачно+29°C32 %726 мм5.8 м/с2 %
    20:00Ясно и безоблачно+23°C44 %727 мм5.2 м/с2 %
    23:00Ясно и безоблачно+21°C65 %728 мм2.5 м/с2 %
  • 05сентября
    Суббота
    +21°
    +33°
    Ясно и безоблачно
    ВремяПогодаТемператураВлажностьДавлениеВетер, м/сВероятность осадков
    02:00Ясно и безоблачно+20°C67 %727 мм0.8 м/с5 %
    05:00Ясно и безоблачно+19°C65 %727 мм0.0 м/с8 %
    08:00Ясно и безоблачно+21°C50 %728 мм0.6 м/с14 %
    11:00Практически безоблачно+28°C24 %729 мм1.1 м/с18 %
    14:00Ясно и безоблачно+32°C16 %728 мм3.6 м/с26 %
    17:00Ясно и безоблачно+31°C21 %727 мм5.4 м/с27 %
    20:00Ясно и безоблачно+26°C29 %727 мм5.6 м/с23 %
    23:00Небольшая облачность+23°C50 %728 мм2.1 м/с26 %
  • 06сентября
    Воскресенье
    +21°
    +33°
    Ясно и безоблачно
    ВремяПогодаТемператураВлажностьДавлениеВетер, м/сВероятность осадков
    05:00Небольшая облачность+22°C70 %727 мм0.5 м/с27 %
    11:00Ясно и безоблачно+27°C46 %728 мм0.9 м/с26 %
    17:00Ясно и безоблачно+32°C56 %726 мм3.8 м/с36 %
    23:00Ясно и безоблачно+25°C48 %728 мм1.2 м/с30 %
  • 07сентября
    Понедельник
    +19°
    +33°
    Ясно и безоблачно
    ВремяПогодаТемператураВлажностьДавлениеВетер, м/сВероятность осадков
    05:00Ясно и безоблачно+21°C58 %727 мм1.1 м/с21 %
    11:00Ясно и безоблачно+29°C28 %728 мм2.4 м/с21 %
    17:00Ясно и безоблачно+31°C22 %726 мм3.8 м/с33 %
    23:00Ясно и безоблачно+23°C50 %727 мм1.2 м/с24 %
Мы используем cookies
Соглашаюсь